Cabrils, Spain
Current Conditions -  °F | °C
As of 4:30 AM on Saturday 29 Nov 2014 (Local Time) from LEBL Reporting Station
Few Clouds Few Clouds  
Wind Chill: 64°   Ceiling: Unl
Heat Index: 64°   Visibility: 4mi
Dew Point: 63°   Wind: 16mph
Humidity: 94%   Direction: 90°E
Pressure: 29.41"   Gusts: NA
Location:  41.53°N, 2.37°E
Report Text: LEBL 290330Z 09014KT 7000 FEW018 18/17 Q0996 NOSIG
Loading
Personal Weather Stations






























Interactive Weather Map New forecast layout! Learn more

10-Day Weather Forecast

Advertisements
Track Severe Weather on mobile